Terminal Aerodrome Forecast
Issued by NWS Missoula, MT

Home | Current Version | Previous Version | Text Only | Print | Product List | Glossary On
Versions: 1 2 3 4 5 6 7 8 9 10 11 12 13
919
FTUS45 KMSO 172320
TAFBTM
TAF
KBTM 172320Z 1800/1824 31008KT P6SM SKC
     FM180200 15005KT 6SM HZ SKC
     FM181800 30008G16KT P6SM SKC=

USA.gov is the U.S. government's official web portal to all federal, state and local government web resources and services.